createdAt,value
2018-03-29T00:00:12.456Z,994.48
2018-03-29T00:01:12.446Z,994.54
2018-03-29T00:02:12.434Z,994.54
2018-03-29T00:03:12.425Z,994.51
2018-03-29T00:04:12.413Z,994.51
2018-03-29T00:05:12.404Z,994.53
2018-03-29T00:06:12.393Z,994.50
2018-03-29T00:07:12.382Z,994.44
2018-03-29T00:08:12.368Z,994.45
2018-03-29T00:09:12.361Z,994.52
2018-03-29T00:10:12.348Z,994.51
2018-03-29T00:11:12.335Z,994.60
2018-03-29T00:12:12.327Z,994.59
2018-03-29T00:13:12.327Z,994.59
2018-03-29T00:14:12.302Z,994.65
2018-03-29T00:15:12.289Z,994.65
2018-03-29T00:16:12.279Z,994.65
2018-03-29T00:17:12.268Z,994.69
2018-03-29T00:18:12.262Z,994.65
2018-03-29T00:19:12.247Z,994.70
2018-03-29T00:20:12.231Z,994.64
2018-03-29T00:21:12.228Z,994.62
2018-03-29T00:22:12.208Z,994.72
2018-03-29T00:23:12.196Z,994.70
2018-03-29T00:24:12.191Z,994.74
2018-03-29T00:25:12.181Z,994.71
2018-03-29T00:26:12.162Z,994.78
2018-03-29T00:27:12.156Z,994.81
2018-03-29T00:28:12.139Z,994.67
2018-03-29T00:29:12.138Z,994.72
2018-03-29T00:30:12.119Z,994.77
2018-03-29T00:31:12.110Z,994.70
2018-03-29T00:32:12.098Z,994.76
2018-03-29T00:33:12.087Z,994.85
2018-03-29T00:34:12.083Z,994.83
2018-03-29T00:35:12.065Z,994.86
2018-03-29T00:36:12.052Z,994.92
2018-03-29T00:37:12.042Z,994.87
2018-03-29T00:38:12.031Z,994.86
2018-03-29T00:39:12.019Z,994.90
2018-03-29T00:40:12.003Z,994.87
2018-03-29T00:41:11.993Z,994.89
2018-03-29T00:42:11.984Z,994.93
2018-03-29T00:43:11.977Z,994.96
2018-03-29T00:44:11.960Z,994.93
2018-03-29T00:45:11.947Z,994.92
2018-03-29T00:46:11.941Z,994.88
2018-03-29T00:47:11.924Z,994.95
2018-03-29T00:48:11.913Z,994.94
2018-03-29T00:49:11.911Z,995.00
2018-03-29T00:50:11.897Z,994.99
2018-03-29T00:51:11.882Z,994.99
2018-03-29T00:52:11.875Z,995.04
2018-03-29T00:53:11.862Z,995.08
2018-03-29T00:54:11.869Z,995.03
2018-03-29T00:55:11.837Z,995.07
2018-03-29T00:56:11.824Z,995.07
2018-03-29T00:57:11.819Z,995.15
2018-03-29T00:58:11.803Z,995.07
2018-03-29T00:59:11.789Z,995.16
2018-03-29T01:00:11.781Z,995.21
2018-03-29T01:01:11.769Z,995.14
2018-03-29T01:02:11.753Z,995.23
2018-03-29T01:03:11.742Z,995.24
2018-03-29T01:04:11.734Z,995.20
2018-03-29T01:05:11.722Z,995.23
2018-03-29T01:06:11.712Z,995.23
2018-03-29T01:07:11.700Z,995.27
2018-03-29T01:08:11.687Z,995.28
2018-03-29T01:09:11.677Z,995.22
2018-03-29T01:10:11.666Z,995.24
2018-03-29T01:11:11.657Z,995.28
2018-03-29T01:12:11.645Z,995.25
2018-03-29T01:13:11.631Z,995.20
2018-03-29T01:14:11.618Z,995.20
2018-03-29T01:15:11.607Z,995.28
2018-03-29T01:16:11.595Z,995.20
2018-03-29T01:17:11.586Z,995.24
2018-03-29T01:18:11.577Z,995.27
2018-03-29T01:19:11.570Z,995.24
2018-03-29T01:20:11.553Z,995.25
2018-03-29T01:21:11.538Z,995.27
2018-03-29T01:22:11.529Z,995.26
2018-03-29T01:23:11.519Z,995.25
2018-03-29T01:24:11.509Z,995.29
2018-03-29T01:25:11.498Z,995.34
2018-03-29T01:26:11.488Z,995.34
2018-03-29T01:27:11.474Z,995.38
2018-03-29T01:28:11.462Z,995.38
2018-03-29T01:29:11.450Z,995.37
2018-03-29T01:30:11.479Z,995.39
2018-03-29T01:31:11.427Z,995.36
2018-03-29T01:32:11.419Z,995.44
2018-03-29T01:33:11.411Z,995.47
2018-03-29T01:34:11.393Z,995.42
2018-03-29T01:35:11.380Z,995.41
2018-03-29T01:36:11.372Z,995.44
2018-03-29T01:37:11.363Z,995.47
2018-03-29T01:38:11.354Z,995.46
2018-03-29T01:39:11.340Z,995.50
2018-03-29T01:40:11.329Z,995.48
2018-03-29T01:41:11.313Z,995.57
2018-03-29T01:42:11.305Z,995.55
2018-03-29T01:43:11.289Z,995.62
2018-03-29T01:44:11.282Z,995.59
2018-03-29T01:45:11.273Z,995.65
2018-03-29T01:46:26.017Z,995.65
2018-03-29T01:47:11.247Z,995.58
2018-03-29T01:48:11.232Z,995.68
2018-03-29T01:49:11.237Z,995.66
2018-03-29T01:50:11.215Z,995.71
2018-03-29T01:51:11.201Z,995.73
2018-03-29T01:52:11.191Z,995.71
2018-03-29T01:53:11.182Z,995.70
2018-03-29T01:54:11.167Z,995.68
2018-03-29T01:55:11.159Z,995.71
2018-03-29T01:56:11.148Z,995.74
2018-03-29T01:57:11.144Z,995.72
2018-03-29T01:58:11.123Z,995.75
2018-03-29T01:59:11.113Z,995.77
2018-03-29T02:00:11.101Z,995.80
2018-03-29T02:01:11.089Z,995.82
2018-03-29T02:02:11.076Z,995.84
2018-03-29T02:03:11.063Z,995.85
2018-03-29T02:04:11.054Z,995.85
2018-03-29T02:05:11.047Z,995.85
2018-03-29T02:06:11.035Z,995.88
2018-03-29T02:07:11.024Z,995.90
2018-03-29T02:08:11.038Z,995.88
2018-03-29T02:09:11.025Z,995.91
2018-03-29T02:10:11.010Z,995.88
2018-03-29T02:11:10.980Z,995.92
2018-03-29T02:12:10.966Z,995.90
2018-03-29T02:13:10.955Z,995.93
2018-03-29T02:14:10.939Z,995.92
2018-03-29T02:15:10.927Z,995.98
2018-03-29T02:16:10.916Z,995.97
2018-03-29T02:17:10.908Z,995.97
2018-03-29T02:18:10.898Z,995.99
2018-03-29T02:19:10.887Z,996.00
2018-03-29T02:20:10.877Z,996.01
2018-03-29T02:21:10.868Z,996.02
2018-03-29T02:22:10.848Z,995.99
2018-03-29T02:23:10.848Z,996.02
2018-03-29T02:24:10.827Z,996.01
2018-03-29T02:25:10.826Z,996.00
2018-03-29T02:26:10.809Z,996.04
2018-03-29T02:27:10.844Z,996.04
2018-03-29T02:28:10.779Z,996.05
2018-03-29T02:29:10.770Z,996.03
2018-03-29T02:30:10.770Z,996.06
2018-03-29T02:31:10.751Z,996.08
2018-03-29T02:32:10.745Z,996.04
2018-03-29T02:33:10.752Z,996.06
2018-03-29T02:34:10.718Z,996.06
2018-03-29T02:35:10.705Z,996.01
2018-03-29T02:36:10.692Z,996.04
2018-03-29T02:37:10.684Z,996.04
2018-03-29T02:38:10.672Z,995.98
2018-03-29T02:39:10.661Z,996.10
2018-03-29T02:40:10.652Z,995.96
2018-03-29T02:41:10.639Z,996.06
2018-03-29T02:42:10.623Z,996.07
2018-03-29T02:43:10.611Z,996.05
2018-03-29T02:44:10.606Z,996.03
2018-03-29T02:45:10.596Z,996.06
2018-03-29T02:46:10.584Z,996.08
2018-03-29T02:47:10.647Z,996.10
2018-03-29T02:48:10.569Z,996.09
2018-03-29T02:49:10.544Z,996.09
2018-03-29T02:50:10.534Z,996.10
2018-03-29T02:51:10.523Z,996.09
2018-03-29T02:52:10.511Z,996.05
2018-03-29T02:53:10.506Z,996.12
2018-03-29T02:54:10.504Z,996.08
2018-03-29T02:55:10.537Z,996.09
2018-03-29T02:56:10.475Z,996.12
2018-03-29T02:57:10.458Z,996.15
2018-03-29T02:58:10.495Z,996.20
2018-03-29T02:59:10.432Z,996.16
2018-03-29T03:00:10.419Z,996.24
2018-03-29T03:01:10.410Z,996.23
2018-03-29T03:02:10.402Z,996.23
2018-03-29T03:03:10.399Z,996.23
2018-03-29T03:04:10.380Z,996.25
2018-03-29T03:05:10.361Z,996.21
2018-03-29T03:06:10.356Z,996.23
2018-03-29T03:07:10.343Z,996.19
2018-03-29T03:08:10.332Z,996.27
2018-03-29T03:09:10.321Z,996.33
2018-03-29T03:10:10.307Z,996.30
2018-03-29T03:11:10.298Z,996.29
2018-03-29T03:12:10.282Z,996.35
2018-03-29T03:13:10.275Z,996.29
2018-03-29T03:14:10.263Z,996.35
2018-03-29T03:15:10.253Z,996.35
2018-03-29T03:16:10.240Z,996.40
2018-03-29T03:17:10.232Z,996.33
2018-03-29T03:18:10.218Z,996.36
2018-03-29T03:19:10.208Z,996.36
2018-03-29T03:20:10.195Z,996.36
2018-03-29T03:21:10.184Z,996.33
2018-03-29T03:22:10.197Z,996.41
2018-03-29T03:23:10.160Z,996.43
2018-03-29T03:24:10.149Z,996.37
2018-03-29T03:25:10.137Z,996.42
2018-03-29T03:26:10.126Z,996.49
2018-03-29T03:27:10.113Z,996.49
2018-03-29T03:28:10.110Z,996.50
2018-03-29T03:29:10.093Z,996.49
2018-03-29T03:30:10.085Z,996.48
2018-03-29T03:31:10.070Z,996.50
2018-03-29T03:32:10.061Z,996.49
2018-03-29T03:33:10.045Z,996.53
2018-03-29T03:34:10.039Z,996.51
2018-03-29T03:35:10.026Z,996.54
2018-03-29T03:36:10.013Z,996.52
2018-03-29T03:37:09.997Z,996.51
2018-03-29T03:38:09.995Z,996.57
2018-03-29T03:39:09.974Z,996.55
2018-03-29T03:40:09.964Z,996.61
2018-03-29T03:41:09.956Z,996.52
2018-03-29T03:42:09.945Z,996.55
2018-03-29T03:43:09.934Z,996.62
2018-03-29T03:44:09.919Z,996.61
2018-03-29T03:45:09.911Z,996.63
2018-03-29T03:46:09.899Z,996.65
2018-03-29T03:47:09.885Z,996.66
2018-03-29T03:48:09.877Z,996.66
2018-03-29T03:49:09.866Z,996.64
2018-03-29T03:50:09.860Z,996.68
2018-03-29T03:51:09.843Z,996.69
2018-03-29T03:52:09.831Z,996.67
2018-03-29T03:53:09.818Z,996.66
2018-03-29T03:54:09.807Z,996.64
2018-03-29T03:55:09.800Z,996.59
2018-03-29T03:56:09.784Z,996.66
2018-03-29T03:57:09.773Z,996.73
2018-03-29T03:58:09.766Z,996.75
2018-03-29T03:59:09.748Z,996.76
2018-03-29T04:00:09.736Z,996.81
2018-03-29T04:01:09.733Z,996.83
2018-03-29T04:02:09.721Z,996.81
2018-03-29T04:03:09.706Z,996.83
2018-03-29T04:04:09.697Z,996.80
2018-03-29T04:05:09.684Z,996.76
2018-03-29T04:06:09.673Z,996.85
2018-03-29T04:07:09.659Z,996.86
2018-03-29T04:08:09.648Z,996.88
2018-03-29T04:09:09.639Z,996.87
2018-03-29T04:10:09.631Z,996.84
2018-03-29T04:11:09.618Z,996.88
2018-03-29T04:12:09.613Z,996.88
2018-03-29T04:13:09.595Z,996.90
2018-03-29T04:14:09.594Z,996.92
2018-03-29T04:15:09.572Z,996.83
2018-03-29T04:16:09.560Z,996.86
2018-03-29T04:17:09.555Z,996.83
2018-03-29T04:18:09.539Z,996.87
2018-03-29T04:19:09.527Z,996.92
2018-03-29T04:20:09.515Z,996.92
2018-03-29T04:21:09.506Z,996.95
2018-03-29T04:22:09.491Z,996.94
2018-03-29T04:23:09.484Z,997.00
2018-03-29T04:24:09.470Z,996.97
2018-03-29T04:25:09.459Z,997.00
2018-03-29T04:26:09.447Z,997.01
2018-03-29T04:27:09.433Z,997.03
2018-03-29T04:28:09.422Z,997.03
2018-03-29T04:29:09.415Z,997.07
2018-03-29T04:30:09.408Z,997.02
2018-03-29T04:31:09.391Z,997.10
2018-03-29T04:32:09.380Z,997.08
2018-03-29T04:33:09.370Z,997.05
2018-03-29T04:34:09.356Z,997.11
2018-03-29T04:35:09.346Z,997.06
2018-03-29T04:36:09.337Z,997.08
2018-03-29T04:37:09.326Z,997.09
2018-03-29T04:38:09.312Z,997.11
2018-03-29T04:39:09.302Z,997.09
2018-03-29T04:40:09.296Z,997.07
2018-03-29T04:41:09.277Z,997.10
2018-03-29T04:42:09.272Z,997.08
2018-03-29T04:43:09.258Z,997.11
2018-03-29T04:44:09.246Z,997.07
2018-03-29T04:45:09.238Z,997.04
2018-03-29T04:46:09.225Z,997.08
2018-03-29T04:47:09.208Z,997.07
2018-03-29T04:48:09.199Z,997.06
2018-03-29T04:49:09.231Z,997.04
2018-03-29T04:50:09.180Z,997.05
2018-03-29T04:51:09.171Z,997.06
2018-03-29T04:52:09.156Z,997.03
2018-03-29T04:53:09.146Z,997.03
2018-03-29T04:54:09.132Z,997.07
2018-03-29T04:55:09.119Z,997.04
2018-03-29T04:56:09.108Z,997.04
2018-03-29T04:57:09.102Z,997.07
2018-03-29T04:58:09.089Z,997.09
2018-03-29T04:59:09.071Z,997.02
2018-03-29T05:00:09.065Z,997.04
2018-03-29T05:01:09.058Z,997.02
2018-03-29T05:02:09.048Z,997.04
2018-03-29T05:03:09.029Z,997.04
2018-03-29T05:04:09.022Z,997.02
2018-03-29T05:05:09.011Z,997.07
2018-03-29T05:06:09.001Z,997.12
2018-03-29T05:07:08.989Z,997.12
2018-03-29T05:08:08.973Z,997.04
2018-03-29T05:09:08.964Z,997.14
2018-03-29T05:10:08.954Z,997.11
2018-03-29T05:11:08.944Z,997.09
2018-03-29T05:12:08.928Z,997.09
2018-03-29T05:13:08.929Z,997.13
2018-03-29T05:14:08.920Z,997.12
2018-03-29T05:15:08.895Z,997.10
2018-03-29T05:16:08.886Z,997.09
2018-03-29T05:17:08.872Z,997.13
2018-03-29T05:18:08.869Z,997.14
2018-03-29T05:19:08.850Z,997.14
2018-03-29T05:20:08.846Z,997.17
2018-03-29T05:21:08.825Z,997.17
2018-03-29T05:22:08.816Z,997.16
2018-03-29T05:23:08.805Z,997.23
2018-03-29T05:24:08.798Z,997.21
2018-03-29T05:25:08.787Z,997.24
2018-03-29T05:26:08.775Z,997.25
2018-03-29T05:27:08.764Z,997.26
2018-03-29T05:28:08.748Z,997.26
2018-03-29T05:29:08.740Z,997.25
2018-03-29T05:30:08.727Z,997.31
2018-03-29T05:31:08.720Z,997.31
2018-03-29T05:32:08.716Z,997.32
2018-03-29T05:33:08.696Z,997.28
2018-03-29T05:34:08.688Z,997.30
2018-03-29T05:35:08.674Z,997.28
2018-03-29T05:36:08.660Z,997.28
2018-03-29T05:37:08.649Z,997.34
2018-03-29T05:38:08.639Z,997.30
2018-03-29T05:39:08.630Z,997.29
2018-03-29T05:40:08.634Z,997.32
2018-03-29T05:41:08.611Z,997.34
2018-03-29T05:42:08.594Z,997.32
2018-03-29T05:43:08.583Z,997.30
2018-03-29T05:44:08.575Z,997.23
2018-03-29T05:45:08.615Z,997.32
2018-03-29T05:46:08.554Z,997.34
2018-03-29T05:47:08.542Z,997.36
2018-03-29T05:48:08.528Z,997.34
2018-03-29T05:49:08.516Z,997.42
2018-03-29T05:50:08.526Z,997.41
2018-03-29T05:51:08.495Z,997.43
2018-03-29T05:52:08.487Z,997.48
2018-03-29T05:53:08.477Z,997.46
2018-03-29T05:54:08.464Z,997.52
2018-03-29T05:55:08.448Z,997.53
2018-03-29T05:56:08.436Z,997.53
2018-03-29T05:57:08.428Z,997.51
2018-03-29T05:58:08.421Z,997.51
2018-03-29T05:59:08.410Z,997.49
2018-03-29T06:00:08.399Z,997.55
2018-03-29T06:01:08.382Z,997.53
2018-03-29T06:02:08.371Z,997.54
2018-03-29T06:03:08.414Z,997.58
2018-03-29T06:04:08.350Z,997.58
2018-03-29T06:05:08.343Z,997.54
2018-03-29T06:06:08.328Z,997.55
2018-03-29T06:07:08.319Z,997.55
2018-03-29T06:08:08.312Z,997.56
2018-03-29T06:09:08.298Z,997.58
2018-03-29T06:10:08.295Z,997.61
2018-03-29T06:11:08.273Z,997.59
2018-03-29T06:12:08.261Z,997.58
2018-03-29T06:13:08.254Z,997.60
2018-03-29T06:14:08.246Z,997.62
2018-03-29T06:15:08.232Z,997.63
2018-03-29T06:16:08.223Z,997.68
2018-03-29T06:17:08.206Z,997.61
2018-03-29T06:18:08.195Z,997.63
2018-03-29T06:19:08.189Z,997.60
2018-03-29T06:20:08.176Z,997.62
2018-03-29T06:21:08.172Z,997.63
2018-03-29T06:22:08.156Z,997.64
2018-03-29T06:23:08.182Z,997.63
2018-03-29T06:24:08.128Z,997.64
2018-03-29T06:25:08.128Z,997.72
2018-03-29T06:26:08.110Z,997.73
2018-03-29T06:27:08.104Z,997.72
2018-03-29T06:28:08.093Z,997.70
2018-03-29T06:29:08.075Z,997.67
2018-03-29T06:30:08.124Z,997.71
2018-03-29T06:31:08.086Z,997.72
2018-03-29T06:32:08.045Z,997.72
2018-03-29T06:33:08.034Z,997.76
2018-03-29T06:34:08.026Z,997.74
2018-03-29T06:35:08.013Z,997.80
2018-03-29T06:36:08.000Z,997.76
2018-03-29T06:37:08.001Z,997.76
2018-03-29T06:38:07.983Z,997.79
2018-03-29T06:39:07.970Z,997.78
2018-03-29T06:40:07.959Z,997.78
2018-03-29T06:41:07.948Z,997.76
2018-03-29T06:42:07.940Z,997.77
2018-03-29T06:43:07.926Z,997.80
2018-03-29T06:44:07.920Z,997.81
2018-03-29T06:45:07.901Z,997.74
2018-03-29T06:46:07.893Z,997.84
2018-03-29T06:47:07.883Z,997.78
2018-03-29T06:48:07.873Z,997.83
2018-03-29T06:49:07.864Z,997.79
2018-03-29T06:50:07.853Z,997.77
2018-03-29T06:51:07.842Z,997.78
2018-03-29T06:52:07.831Z,997.86
2018-03-29T06:53:07.819Z,997.82
2018-03-29T06:54:07.808Z,997.82
2018-03-29T06:55:07.795Z,997.85
2018-03-29T06:56:07.787Z,997.80
2018-03-29T06:57:07.776Z,997.82
2018-03-29T06:58:07.765Z,997.89
2018-03-29T06:59:07.760Z,997.90
2018-03-29T07:00:07.742Z,997.87
2018-03-29T07:01:07.838Z,997.87
2018-03-29T07:02:07.724Z,997.87
2018-03-29T07:03:07.715Z,997.91
2018-03-29T07:04:07.704Z,997.89
2018-03-29T07:05:07.696Z,997.92
2018-03-29T07:06:07.682Z,997.86
2018-03-29T07:07:07.667Z,997.85
2018-03-29T07:08:07.662Z,997.92
2018-03-29T07:09:07.649Z,997.91
2018-03-29T07:10:07.644Z,997.91
2018-03-29T07:11:07.628Z,997.87
2018-03-29T07:12:07.621Z,997.84
2018-03-29T07:13:07.610Z,997.93
2018-03-29T07:14:07.597Z,997.86
2018-03-29T07:15:07.585Z,997.92
2018-03-29T07:16:07.572Z,997.88
2018-03-29T07:17:07.569Z,997.94
2018-03-29T07:18:07.556Z,997.91
2018-03-29T07:19:07.545Z,997.90
2018-03-29T07:20:07.532Z,997.90
2018-03-29T07:21:07.520Z,997.92
2018-03-29T07:22:07.513Z,997.92
2018-03-29T07:23:07.498Z,997.96
2018-03-29T07:24:07.493Z,997.96
2018-03-29T07:25:07.480Z,997.95
2018-03-29T07:26:07.472Z,997.97
2018-03-29T07:27:07.460Z,997.99
2018-03-29T07:28:07.455Z,997.97
2018-03-29T07:29:07.435Z,998.01
2018-03-29T07:30:07.426Z,998.00
2018-03-29T07:31:07.418Z,998.01
2018-03-29T07:32:07.406Z,998.02
2018-03-29T07:33:07.400Z,998.04
2018-03-29T07:34:07.386Z,998.04
2018-03-29T07:35:07.375Z,998.01
2018-03-29T07:36:07.361Z,998.03
2018-03-29T07:37:07.364Z,998.08
2018-03-29T07:38:07.340Z,998.06
2018-03-29T07:39:07.334Z,998.07
2018-03-29T07:40:07.320Z,998.06
2018-03-29T07:41:07.311Z,998.06
2018-03-29T07:42:07.298Z,998.06
2018-03-29T07:43:07.288Z,998.13
2018-03-29T07:44:07.278Z,998.07
2018-03-29T07:45:07.270Z,998.05
2018-03-29T07:46:07.261Z,998.08
2018-03-29T07:47:07.301Z,998.02
2018-03-29T07:48:07.240Z,998.06
2018-03-29T07:49:07.224Z,998.05
2018-03-29T07:50:07.223Z,998.05
2018-03-29T07:51:07.205Z,998.10
2018-03-29T07:52:07.196Z,998.10
2018-03-29T07:53:07.203Z,998.12
2018-03-29T07:54:07.200Z,998.19
2018-03-29T07:55:07.164Z,998.12
2018-03-29T07:56:07.158Z,998.13
2018-03-29T07:57:07.141Z,998.15
2018-03-29T07:58:07.132Z,998.14
2018-03-29T07:59:07.126Z,998.13
2018-03-29T08:00:07.112Z,998.17
2018-03-29T08:01:07.100Z,998.15
2018-03-29T08:02:07.091Z,998.16
2018-03-29T08:03:07.082Z,998.17
2018-03-29T08:04:07.074Z,998.15
2018-03-29T08:05:07.065Z,998.16
2018-03-29T08:06:07.054Z,998.18
2018-03-29T08:07:07.044Z,998.16
2018-03-29T08:08:07.039Z,998.12
2018-03-29T08:09:07.027Z,998.11
2018-03-29T08:10:07.016Z,998.15
2018-03-29T08:11:07.004Z,998.17
2018-03-29T08:12:06.995Z,998.17
2018-03-29T08:13:06.980Z,998.15
2018-03-29T08:14:06.978Z,998.21
2018-03-29T08:15:06.965Z,998.23
2018-03-29T08:16:06.952Z,998.22
2018-03-29T08:17:06.941Z,998.20
2018-03-29T08:18:06.933Z,998.30
2018-03-29T08:19:06.925Z,998.27
2018-03-29T08:20:06.913Z,998.33
2018-03-29T08:21:06.906Z,998.32
2018-03-29T08:22:06.896Z,998.37
2018-03-29T08:23:06.887Z,998.38
2018-03-29T08:24:06.879Z,998.40
2018-03-29T08:25:06.867Z,998.36
2018-03-29T08:26:06.861Z,998.40
2018-03-29T08:27:06.851Z,998.34
2018-03-29T08:28:06.840Z,998.33
2018-03-29T08:29:06.829Z,998.36
2018-03-29T08:30:06.824Z,998.38
2018-03-29T08:31:06.811Z,998.36
2018-03-29T08:32:06.803Z,998.39
2018-03-29T08:33:06.814Z,998.37
2018-03-29T08:34:06.781Z,998.37
2018-03-29T08:35:06.775Z,998.39
2018-03-29T08:36:06.764Z,998.39
2018-03-29T08:37:06.752Z,998.42
2018-03-29T08:38:06.746Z,998.40
2018-03-29T08:39:06.736Z,998.42
2018-03-29T08:40:06.724Z,998.44
2018-03-29T08:41:06.721Z,998.48
2018-03-29T08:42:06.707Z,998.51
2018-03-29T08:43:06.698Z,998.52
2018-03-29T08:44:06.689Z,998.50
2018-03-29T08:45:06.681Z,998.49
2018-03-29T08:46:06.673Z,998.53
2018-03-29T08:47:06.661Z,998.55
2018-03-29T08:48:06.683Z,998.53
2018-03-29T08:49:06.638Z,998.60
2018-03-29T08:50:06.628Z,998.54
2018-03-29T08:51:06.620Z,998.60
2018-03-29T08:52:06.612Z,998.58
2018-03-29T08:53:06.608Z,998.51
2018-03-29T08:54:06.596Z,998.59
2018-03-29T08:55:06.582Z,998.59
2018-03-29T08:56:06.571Z,998.57
2018-03-29T08:57:06.560Z,998.58
2018-03-29T08:58:06.557Z,998.58
2018-03-29T08:59:06.544Z,998.59
2018-03-29T09:00:06.535Z,998.62
2018-03-29T09:01:06.528Z,998.63
2018-03-29T09:02:06.531Z,998.61
2018-03-29T09:03:06.526Z,998.63
2018-03-29T09:04:06.496Z,998.66
2018-03-29T09:05:06.493Z,998.64
2018-03-29T09:06:06.481Z,998.68
2018-03-29T09:07:06.492Z,998.69
2018-03-29T09:08:06.457Z,998.64
2018-03-29T09:09:06.449Z,998.65
2018-03-29T09:10:06.445Z,998.69
2018-03-29T09:11:06.435Z,998.66
2018-03-29T09:12:06.424Z,998.65
2018-03-29T09:13:06.424Z,998.67
2018-03-29T09:14:06.408Z,998.66
2018-03-29T09:15:06.395Z,998.68
2018-03-29T09:16:06.389Z,998.67
2018-03-29T09:17:06.384Z,998.72
2018-03-29T09:18:06.373Z,998.72
2018-03-29T09:19:06.362Z,998.70
2018-03-29T09:20:06.352Z,998.69
2018-03-29T09:21:06.355Z,998.69
2018-03-29T09:22:06.337Z,998.69
2018-03-29T09:23:06.323Z,998.70
2018-03-29T09:24:06.319Z,998.73
2018-03-29T09:25:06.324Z,998.72
2018-03-29T09:26:06.305Z,998.70
2018-03-29T09:27:06.294Z,998.74
2018-03-29T09:28:06.283Z,998.69
2018-03-29T09:29:06.269Z,998.76
2018-03-29T09:30:06.262Z,998.73
2018-03-29T09:31:06.257Z,998.77
2018-03-29T09:32:06.245Z,998.77
2018-03-29T09:33:06.236Z,998.80
2018-03-29T09:34:06.226Z,998.78
2018-03-29T09:35:06.219Z,998.70
2018-03-29T09:36:06.211Z,998.80
2018-03-29T09:37:06.200Z,998.80
2018-03-29T09:38:06.192Z,998.78
2018-03-29T09:39:06.184Z,998.84
2018-03-29T09:40:06.182Z,998.76
2018-03-29T09:41:06.165Z,998.84
2018-03-29T09:42:06.165Z,998.86
2018-03-29T09:43:06.159Z,998.86
2018-03-29T09:44:06.140Z,998.85
2018-03-29T09:45:06.134Z,998.81
2018-03-29T09:46:06.125Z,998.85
2018-03-29T09:47:06.117Z,998.84
2018-03-29T09:48:06.108Z,998.82
2018-03-29T09:49:06.096Z,998.86
2018-03-29T09:50:06.097Z,998.86
2018-03-29T09:51:06.081Z,998.85
2018-03-29T09:52:06.072Z,998.87
2018-03-29T09:53:06.070Z,998.83
2018-03-29T09:54:06.056Z,998.91
2018-03-29T09:55:06.047Z,998.87
2018-03-29T09:56:06.041Z,998.85
2018-03-29T09:57:06.032Z,998.91
2018-03-29T09:58:06.025Z,998.86
2018-03-29T09:59:06.010Z,998.81
2018-03-29T10:00:06.008Z,998.88
2018-03-29T10:01:05.995Z,998.87
2018-03-29T10:02:05.989Z,998.84
2018-03-29T10:03:05.976Z,998.85
2018-03-29T10:04:05.973Z,998.84
2018-03-29T10:05:05.963Z,998.83
2018-03-29T10:06:05.962Z,998.85
2018-03-29T10:07:05.950Z,998.87
2018-03-29T10:08:05.938Z,998.81
2018-03-29T10:09:05.928Z,998.87
2018-03-29T10:10:05.921Z,998.85
2018-03-29T10:11:05.918Z,998.89
2018-03-29T10:12:05.906Z,998.86
2018-03-29T10:13:05.900Z,998.91
2018-03-29T10:14:05.892Z,998.91
2018-03-29T10:15:05.881Z,998.87
2018-03-29T10:16:05.878Z,998.90
2018-03-29T10:17:05.867Z,998.93
2018-03-29T10:18:05.863Z,998.95
2018-03-29T10:19:05.853Z,998.92
2018-03-29T10:20:05.844Z,998.91
2018-03-29T10:21:05.837Z,998.93
2018-03-29T10:22:05.832Z,998.93
2018-03-29T10:23:05.820Z,998.92
2018-03-29T10:24:05.824Z,998.94
2018-03-29T10:25:05.812Z,998.93
2018-03-29T10:26:05.803Z,998.89
2018-03-29T10:27:05.791Z,998.89
2018-03-29T10:28:05.785Z,998.91
2018-03-29T10:29:05.784Z,998.92
2018-03-29T10:30:05.777Z,998.89
2018-03-29T10:31:05.766Z,998.92
2018-03-29T10:32:05.763Z,998.91
2018-03-29T10:33:05.753Z,998.83
2018-03-29T10:34:05.748Z,998.87
2018-03-29T10:35:05.738Z,998.89
2018-03-29T10:36:05.733Z,998.89
2018-03-29T10:37:05.732Z,998.90
2018-03-29T10:38:05.721Z,998.98
2018-03-29T10:39:05.754Z,998.91
2018-03-29T10:40:05.703Z,998.92
2018-03-29T10:41:05.699Z,998.94
2018-03-29T10:42:05.692Z,998.87
2018-03-29T10:43:05.684Z,998.93
2018-03-29T10:44:05.674Z,998.95
2018-03-29T10:45:05.678Z,998.94
2018-03-29T10:46:05.666Z,998.91
2018-03-29T10:47:05.653Z,998.94
2018-03-29T10:48:05.648Z,998.92
2018-03-29T10:49:05.635Z,998.96
2018-03-29T10:50:05.635Z,998.94
2018-03-29T10:51:05.625Z,998.97
2018-03-29T10:52:05.616Z,998.94
2018-03-29T10:53:05.609Z,998.89
2018-03-29T10:54:05.651Z,998.98
2018-03-29T10:55:05.596Z,998.95
2018-03-29T10:56:05.590Z,998.98
2018-03-29T10:57:05.582Z,998.96
2018-03-29T10:58:05.596Z,998.97
2018-03-29T10:59:05.560Z,998.93
2018-03-29T11:00:05.553Z,998.97
2018-03-29T11:01:05.549Z,998.94
2018-03-29T11:02:05.541Z,998.98
2018-03-29T11:03:05.535Z,998.98
2018-03-29T11:04:05.528Z,999.02
2018-03-29T11:05:05.517Z,998.98
2018-03-29T11:06:05.509Z,998.98
2018-03-29T11:07:05.506Z,999.07
2018-03-29T11:08:05.496Z,999.05
2018-03-29T11:09:05.491Z,999.10
2018-03-29T11:10:05.491Z,999.06
2018-03-29T11:11:05.476Z,999.00
2018-03-29T11:12:05.472Z,998.93
2018-03-29T11:13:05.462Z,998.98
2018-03-29T11:14:05.457Z,998.96
2018-03-29T11:15:05.447Z,998.98
2018-03-29T11:16:05.442Z,998.99
2018-03-29T11:17:05.438Z,998.95
2018-03-29T11:18:05.432Z,999.00
2018-03-29T11:19:05.423Z,998.98
2018-03-29T11:20:05.440Z,998.98
2018-03-29T11:21:05.410Z,998.98
2018-03-29T11:22:05.403Z,998.96
2018-03-29T11:23:05.402Z,999.00
2018-03-29T11:24:05.398Z,999.02
2018-03-29T11:25:05.446Z,999.05
2018-03-29T11:26:05.386Z,999.09
2018-03-29T11:27:05.378Z,999.02
2018-03-29T11:28:05.370Z,999.09
2018-03-29T11:29:05.368Z,999.08
2018-03-29T11:30:05.370Z,999.14
2018-03-29T11:31:05.358Z,999.02
2018-03-29T11:32:05.354Z,999.02
2018-03-29T11:33:05.344Z,998.95
2018-03-29T11:34:05.341Z,999.02
2018-03-29T11:35:05.336Z,999.05
2018-03-29T11:36:05.354Z,999.07
2018-03-29T11:37:05.333Z,999.17
2018-03-29T11:38:05.323Z,999.13
2018-03-29T11:39:05.312Z,999.07
2018-03-29T11:40:05.311Z,999.00
2018-03-29T11:41:05.304Z,999.15
2018-03-29T11:42:05.301Z,999.05
2018-03-29T11:43:05.299Z,999.13
2018-03-29T11:44:05.303Z,999.13
2018-03-29T11:45:05.294Z,999.09
2018-03-29T11:46:05.283Z,999.10
2018-03-29T11:47:05.281Z,999.09
2018-03-29T11:48:05.280Z,999.05
2018-03-29T11:49:05.280Z,999.06
2018-03-29T11:50:05.281Z,999.11
2018-03-29T11:51:05.275Z,998.99
2018-03-29T11:52:05.280Z,999.05
2018-03-29T11:53:05.270Z,999.10
2018-03-29T11:54:05.267Z,999.09
2018-03-29T11:55:05.262Z,999.04
2018-03-29T11:56:05.268Z,999.05
2018-03-29T11:57:05.264Z,999.11
2018-03-29T11:58:05.261Z,999.12
2018-03-29T11:59:05.259Z,999.06
2018-03-29T12:00:05.262Z,999.05
2018-03-29T12:01:05.255Z,999.07
2018-03-29T12:02:05.256Z,999.10
2018-03-29T12:03:05.256Z,999.03
2018-03-29T12:04:05.260Z,999.03
2018-03-29T12:05:05.312Z,999.09
2018-03-29T12:06:05.253Z,998.99
2018-03-29T12:07:05.254Z,998.99
2018-03-29T12:08:05.255Z,998.97
2018-03-29T12:09:05.254Z,998.91
2018-03-29T12:10:05.261Z,998.98
2018-03-29T12:11:05.254Z,998.93
2018-03-29T12:12:05.253Z,998.99
2018-03-29T12:13:05.257Z,998.96
2018-03-29T12:14:05.258Z,998.96
2018-03-29T12:15:05.264Z,998.94
2018-03-29T12:16:05.264Z,998.93
2018-03-29T12:17:05.260Z,998.88
2018-03-29T12:18:05.276Z,998.86
2018-03-29T12:19:05.261Z,998.86
2018-03-29T12:20:05.260Z,998.88
2018-03-29T12:21:05.265Z,998.89
2018-03-29T12:22:05.269Z,998.84
2018-03-29T12:23:05.267Z,998.88
2018-03-29T12:24:05.265Z,998.87
2018-03-29T12:25:05.324Z,998.78
2018-03-29T12:26:05.266Z,998.85
2018-03-29T12:27:05.271Z,998.90
2018-03-29T12:28:05.271Z,998.86